Time;durP1;ratioP1;P1;durP2;ratioP2;P2;SDS_P1;SDS_P2;PMS_P1;PMS_P2;Temp;Humidity;BMP_temperature;BMP_pressure;BME280_temperature;BME280_humidity;BME280_pressure;Samples;Min_cycle;Max_cycle;Signal;HPM_P1;HPM_P2
2020/12/23 00:01:17;;;;;;;;;101.00;67.50;;;;;4.37;98.33;100250.50;4964022;28;8927;-62
2020/12/23 00:03:44;;;;;;;;;92.00;66.00;;;;;4.43;98.80;100245.94;4963078;28;8981;-62
2020/12/23 00:06:11;;;;;;;;;99.75;67.50;;;;;4.46;97.86;100245.84;4966453;28;8854;-62
2020/12/23 00:08:38;;;;;;;;;93.75;66.75;;;;;4.40;98.85;100241.56;4957308;28;8862;-62
2020/12/23 00:11:05;;;;;;;;;94.50;66.00;;;;;4.35;98.97;100236.38;4956637;28;9565;-62
2020/12/23 00:13:32;;;;;;;;;98.75;69.25;;;;;4.42;98.34;100239.72;4965257;28;8855;-62
2020/12/23 00:15:59;;;;;;;;;100.50;71.25;;;;;4.38;98.42;100246.91;4957754;28;8870;-62
2020/12/23 00:18:28;;;;;;;;;96.75;67.50;;;;;4.33;98.69;100248.81;4966765;28;8875;-63
2020/12/23 00:20:55;;;;;;;;;105.25;72.25;;;;;4.38;98.62;100248.72;4962816;28;8980;-62
2020/12/23 00:23:22;;;;;;;;;100.00;68.75;;;;;4.32;99.39;100240.91;4955307;28;8882;-62
2020/12/23 00:25:49;;;;;;;;;97.25;70.75;;;;;4.36;98.81;100245.22;4963195;28;8962;-62
2020/12/23 00:28:15;;;;;;;;;96.75;68.50;;;;;4.39;98.52;100237.16;4958703;28;8846;-62
2020/12/23 00:30:42;;;;;;;;;93.75;64.75;;;;;4.44;98.95;100245.88;4961691;28;8882;-62
2020/12/23 00:33:24;;;;;;;;;98.25;66.75;;;;;4.42;99.36;100239.72;4953418;28;8936;-62
2020/12/23 00:35:51;;;;;;;;;97.25;65.75;;;;;4.49;98.65;100241.31;4962223;28;8846;-61
2020/12/23 00:38:18;;;;;;;;;98.50;65.75;;;;;4.54;98.52;100250.03;4954878;28;9013;-62
2020/12/23 00:40:45;;;;;;;;;95.25;70.00;;;;;4.46;98.52;100241.38;4961097;28;8881;-62
2020/12/23 00:43:12;;;;;;;;;93.75;65.25;;;;;4.54;98.96;100255.34;4962083;28;8870;-62
2020/12/23 00:45:38;;;;;;;;;94.50;66.25;;;;;4.55;98.44;100253.56;4949250;28;8852;-62
2020/12/23 00:48:05;;;;;;;;;87.50;61.50;;;;;4.59;98.54;100240.13;4960390;28;8854;-62
2020/12/23 00:50:32;;;;;;;;;92.00;64.25;;;;;4.55;98.39;100233.16;4966088;28;8939;-62
2020/12/23 00:52:59;;;;;;;;;108.75;69.25;;;;;4.52;98.36;100230.56;4961998;28;9606;-62
2020/12/23 00:55:26;;;;;;;;;99.25;66.50;;;;;4.60;98.75;100227.72;4963424;28;8958;-62
2020/12/23 00:57:53;;;;;;;;;89.00;64.75;;;;;4.61;99.15;100235.66;4962200;28;8857;-62
2020/12/23 01:00:19;;;;;;;;;97.25;65.00;;;;;4.52;98.28;100229.72;4962698;28;8862;-62
2020/12/23 01:02:46;;;;;;;;;104.25;70.75;;;;;4.56;98.38;100228.72;4966461;28;8874;-62
2020/12/23 01:05:13;;;;;;;;;93.25;69.00;;;;;4.71;98.70;100235.38;4963970;28;8907;-62
2020/12/23 01:07:40;;;;;;;;;99.50;65.75;;;;;4.52;98.28;100230.56;4961175;28;8886;-62
2020/12/23 01:10:07;;;;;;;;;97.75;66.00;;;;;4.56;99.22;100226.94;4962778;28;9010;-63
2020/12/23 01:12:33;;;;;;;;;97.25;65.25;;;;;4.54;98.69;100222.56;4963277;28;8872;-62
2020/12/23 01:15:00;;;;;;;;;100.25;67.00;;;;;4.58;99.14;100235.75;4967256;28;8856;-62
2020/12/23 01:17:27;;;;;;;;;84.50;64.75;;;;;4.63;98.38;100230.28;4961601;28;8964;-62
2020/12/23 01:19:54;;;;;;;;;103.00;70.25;;;;;4.52;98.44;100230.56;4954032;28;8862;-62
2020/12/23 01:22:22;;;;;;;;;94.25;66.75;;;;;4.61;98.25;100230.34;4953233;28;8889;-62
2020/12/23 01:24:48;;;;;;;;;97.75;66.00;;;;;4.58;98.75;100230.44;4956609;28;8880;-62
2020/12/23 01:27:15;;;;;;;;;99.75;66.00;;;;;4.59;98.55;100231.28;4953180;28;8841;-62
2020/12/23 01:29:42;;;;;;;;;97.25;65.75;;;;;4.60;99.41;100222.38;4954422;28;8842;-62
2020/12/23 01:32:09;;;;;;;;;88.75;60.25;;;;;4.55;98.21;100214.53;4952582;28;8866;-62
2020/12/23 01:34:36;;;;;;;;;99.00;72.00;;;;;4.67;99.01;100217.78;4958294;28;8853;-62
2020/12/23 01:37:03;;;;;;;;;101.00;68.00;;;;;4.55;99.02;100224.31;4953809;28;8873;-62
2020/12/23 01:39:30;;;;;;;;;101.25;71.25;;;;;4.50;98.41;100226.22;4954395;28;8862;-62
2020/12/23 01:41:58;;;;;;;;;93.50;66.00;;;;;4.59;99.43;100221.53;4953533;28;8900;-62
2020/12/23 01:44:25;;;;;;;;;95.75;67.25;;;;;4.51;98.37;100220.00;4957656;28;8896;-62
2020/12/23 01:46:52;;;;;;;;;102.75;67.50;;;;;4.66;98.38;100221.34;4953359;28;8865;-62
2020/12/23 01:49:19;;;;;;;;;102.50;67.75;;;;;4.47;99.35;100221.84;4957707;28;9596;-62
2020/12/23 01:51:47;;;;;;;;;74.75;48.50;;;;;4.44;99.86;100221.09;4953282;28;9605;-62
2020/12/23 01:54:14;;;;;;;;;103.75;69.75;;;;;4.51;99.54;100214.69;4953445;28;9585;-62
2020/12/23 01:56:45;;;;;;;;;97.25;66.50;;;;;4.64;98.56;100212.56;4953556;28;8868;-62
2020/12/23 01:59:12;;;;;;;;;97.75;62.75;;;;;4.47;99.45;100205.91;4952527;28;8881;-62
2020/12/23 02:01:48;;;;;;;;;94.50;64.50;;;;;4.47;99.93;100205.91;4952799;28;8968;-62
2020/12/23 02:04:21;;;;;;;;;98.75;66.00;;;;;4.55;99.70;100206.56;4953007;28;9669;-62
2020/12/23 02:06:48;;;;;;;;;95.25;66.75;;;;;4.57;98.86;100219.81;4953249;28;8866;-62
2020/12/23 02:09:18;;;;;;;;;108.75;67.75;;;;;4.47;99.04;100216.53;4954256;28;8871;-65
2020/12/23 02:11:46;;;;;;;;;98.25;64.50;;;;;4.60;98.75;100211.75;4952981;28;8973;-62
2020/12/23 02:14:13;;;;;;;;;92.50;59.50;;;;;4.63;98.96;100216.97;4963529;28;8951;-62
2020/12/23 02:16:40;;;;;;;;;92.75;62.50;;;;;4.69;98.57;100221.28;4952935;28;8970;-62
2020/12/23 02:19:07;;;;;;;;;86.75;63.00;;;;;4.55;99.20;100222.50;4953226;28;8860;-62
2020/12/23 02:21:34;;;;;;;;;93.75;66.00;;;;;4.51;99.30;100223.53;4952744;28;8845;-62
2020/12/23 02:24:01;;;;;;;;;83.50;56.00;;;;;4.62;99.23;100218.75;4955036;28;8872;-63
2020/12/23 02:26:28;;;;;;;;;104.25;69.25;;;;;4.50;99.52;100221.78;4955802;28;8988;-62
2020/12/23 02:28:55;;;;;;;;;101.75;67.25;;;;;4.49;98.95;100217.38;4957488;28;8843;-62
2020/12/23 02:31:22;;;;;;;;;95.50;66.00;;;;;4.60;99.79;100217.94;4952621;28;9687;-62
2020/12/23 02:33:49;;;;;;;;;95.00;65.25;;;;;4.53;100.00;100219.03;4951590;28;8845;-62
2020/12/23 02:36:16;;;;;;;;;102.50;67.50;;;;;4.48;99.90;100217.44;4952941;28;8851;-62
2020/12/23 02:38:42;;;;;;;;;95.25;62.50;;;;;4.71;99.45;100214.09;4958959;28;8857;-62
2020/12/23 02:41:09;;;;;;;;;94.75;67.50;;;;;4.53;98.83;100213.72;4948318;28;8895;-62
2020/12/23 02:43:36;;;;;;;;;93.00;59.00;;;;;4.47;99.08;100205.91;4953729;28;8864;-62
2020/12/23 02:46:04;;;;;;;;;89.00;66.00;;;;;4.57;98.93;100212.72;4958217;28;8856;-62
2020/12/23 02:48:31;;;;;;;;;103.50;70.25;;;;;4.48;99.16;100212.97;4952718;28;8859;-62
2020/12/23 02:50:58;;;;;;;;;89.75;62.75;;;;;4.53;98.92;100219.03;4953529;28;9570;-62
2020/12/23 02:53:25;;;;;;;;;99.75;66.50;;;;;4.54;99.86;100215.47;4953006;29;8856;-62
2020/12/23 02:55:52;;;;;;;;;103.75;66.75;;;;;4.43;99.19;100209.56;4951642;28;8853;-62
2020/12/23 02:58:18;;;;;;;;;96.25;64.25;;;;;4.43;99.12;100198.94;4956825;28;8830;-62
2020/12/23 03:00:45;;;;;;;;;96.75;67.50;;;;;4.48;100.00;100193.50;4954400;28;8880;-62
2020/12/23 03:03:12;;;;;;;;;100.50;65.25;;;;;4.46;100.00;100188.22;4952511;28;8938;-63
2020/12/23 03:05:39;;;;;;;;;89.25;62.75;;;;;4.42;100.00;100194.53;4955120;28;8852;-62
2020/12/23 03:08:05;;;;;;;;;100.25;67.25;;;;;4.42;99.39;100191.88;4952613;29;8870;-62
2020/12/23 03:10:32;;;;;;;;;78.50;61.00;;;;;4.48;99.74;100190.84;4952344;28;8982;-62
2020/12/23 03:12:59;;;;;;;;;91.50;65.00;;;;;4.42;99.55;100185.69;4952636;28;9563;-62
2020/12/23 03:15:26;;;;;;;;;98.00;64.00;;;;;4.40;100.00;100183.09;4957298;28;8964;-62
2020/12/23 03:17:53;;;;;;;;;83.25;59.00;;;;;4.57;99.80;100186.13;4951980;29;8849;-62
2020/12/23 03:20:20;;;;;;;;;93.25;61.25;;;;;4.48;100.00;100189.06;4957024;28;9085;-62
2020/12/23 03:22:47;;;;;;;;;97.25;65.50;;;;;4.36;100.00;100182.28;4963402;28;8993;-62
2020/12/23 03:25:14;;;;;;;;;82.50;62.75;;;;;4.39;100.00;100176.00;4961078;28;8892;-62
2020/12/23 03:27:41;;;;;;;;;85.75;61.25;;;;;4.37;99.86;100173.41;4963615;28;8875;-62
2020/12/23 03:30:07;;;;;;;;;85.75;62.00;;;;;4.45;100.00;100181.16;4961365;28;8981;-62
2020/12/23 03:32:35;;;;;;;;;89.50;63.75;;;;;4.49;99.94;100181.94;4962040;28;8854;-61
2020/12/23 03:35:17;;;;;;;;;83.50;60.75;;;;;4.57;99.88;100182.59;4963676;28;8851;-62
2020/12/23 03:37:44;;;;;;;;;105.00;75.25;;;;;4.50;99.63;100191.66;4965045;28;8918;-62
2020/12/23 03:40:11;;;;;;;;;99.25;73.00;;;;;4.53;99.40;100194.22;4966246;28;8878;-62
2020/12/23 03:42:38;;;;;;;;;91.25;65.25;;;;;4.52;99.46;100201.31;4957394;28;8874;-62
2020/12/23 03:45:05;;;;;;;;;85.75;62.00;;;;;4.53;100.00;100205.75;4958186;28;8910;-62
2020/12/23 03:47:32;;;;;;;;;78.25;56.25;;;;;4.55;99.95;100203.91;4964654;28;8848;-62
2020/12/23 03:49:59;;;;;;;;;81.75;54.25;;;;;4.61;100.00;100200.22;4955958;28;8842;-61
2020/12/23 03:52:26;;;;;;;;;87.50;58.75;;;;;4.64;99.00;100204.56;4955797;28;8854;-62
2020/12/23 03:54:53;;;;;;;;;87.25;59.50;;;;;4.63;99.97;100206.34;4956066;28;8858;-62
2020/12/23 03:57:20;;;;;;;;;85.50;60.25;;;;;4.73;98.49;100210.47;4955961;28;8869;-62
2020/12/23 03:59:47;;;;;;;;;79.50;57.25;;;;;4.65;98.32;100214.28;4955523;28;8932;-62
2020/12/23 04:02:14;;;;;;;;;88.25;62.00;;;;;4.49;98.79;100208.53;4956182;28;8843;-62
2020/12/23 04:04:41;;;;;;;;;83.25;62.00;;;;;4.49;99.18;100204.09;4955922;28;8943;-62
2020/12/23 04:07:08;;;;;;;;;92.00;64.50;;;;;4.51;99.42;100210.22;4954897;28;8881;-62
2020/12/23 04:09:35;;;;;;;;;101.25;67.50;;;;;4.42;99.51;100199.84;4938724;28;8885;-62
2020/12/23 04:12:01;;;;;;;;;85.75;61.50;;;;;4.59;99.15;100208.22;4955686;28;8886;-62
2020/12/23 04:14:28;;;;;;;;;90.50;62.50;;;;;4.76;99.42;100197.06;4955695;28;8870;-62
2020/12/23 04:16:55;;;;;;;;;91.50;67.00;;;;;4.52;98.68;100204.00;4956070;28;8862;-62
2020/12/23 04:19:22;;;;;;;;;110.50;85.25;;;;;4.81;98.96;100197.81;4955484;28;8864;-62
2020/12/23 04:21:48;;;;;;;;;107.25;76.00;;;;;4.70;99.53;100196.41;4955745;28;8864;-62
2020/12/23 04:24:15;;;;;;;;;94.50;64.25;;;;;4.69;98.55;100195.53;4955825;28;9007;-62
2020/12/23 04:26:42;;;;;;;;;96.75;68.00;;;;;4.54;98.70;100194.19;4955498;28;8871;-62
2020/12/23 04:29:09;;;;;;;;;93.75;65.00;;;;;4.45;99.26;100194.47;4961458;28;8841;-62
2020/12/23 04:31:36;;;;;;;;;93.50;68.25;;;;;4.62;99.90;100192.16;4959746;28;8852;-62
2020/12/23 04:34:03;;;;;;;;;93.00;64.25;;;;;4.61;98.76;100186.91;4955030;28;9565;-62
2020/12/23 04:36:29;;;;;;;;;99.25;66.50;;;;;4.52;98.77;100182.72;4955642;28;9696;-62
2020/12/23 04:38:56;;;;;;;;;91.00;60.75;;;;;4.60;99.46;100175.38;4955557;28;8848;-62
2020/12/23 04:41:23;;;;;;;;;102.75;72.50;;;;;4.58;99.33;100163.03;4955665;28;8966;-61
2020/12/23 04:43:50;;;;;;;;;85.75;55.50;;;;;4.47;99.93;100162.50;4938355;28;8942;-62
2020/12/23 04:46:25;;;;;;;;;100.50;63.50;;;;;4.37;99.05;100162.78;4955077;28;8967;-62
2020/12/23 04:48:58;;;;;;;;;74.75;46.00;;;;;4.35;99.38;100166.41;4954839;28;8876;-62
2020/12/23 04:51:33;;;;;;;;;89.25;61.50;;;;;4.38;98.93;100172.47;4955173;28;8860;-62
2020/12/23 04:54:02;;;;;;;;;81.25;59.50;;;;;4.34;99.19;100168.16;4966807;28;8861;-62
2020/12/23 04:56:32;;;;;;;;;94.50;63.75;;;;;4.19;98.84;100165.94;4955196;28;9796;-62
2020/12/23 04:59:02;;;;;;;;;87.25;61.25;;;;;4.24;99.06;100160.47;4955269;28;9569;-63
2020/12/23 05:01:29;;;;;;;;;100.00;65.75;;;;;4.36;99.54;100162.81;4955071;28;8856;-62
2020/12/23 05:03:56;;;;;;;;;82.75;64.50;;;;;4.34;99.66;100156.66;4954523;28;8868;-62
2020/12/23 05:06:24;;;;;;;;;92.50;67.50;;;;;4.27;99.58;100158.63;4954969;28;8883;-62
2020/12/23 05:08:52;;;;;;;;;97.75;64.50;;;;;4.26;99.15;100158.66;4957539;28;8842;-62
2020/12/23 05:11:18;;;;;;;;;89.50;62.75;;;;;4.34;98.77;100154.88;4973762;28;8913;-62
2020/12/23 05:13:45;;;;;;;;;88.50;68.00;;;;;4.39;99.75;100152.94;4974001;28;8854;-62
2020/12/23 05:16:22;;;;;;;;;96.50;66.25;;;;;4.49;99.76;100160.66;4974358;28;8979;-62
2020/12/23 05:18:49;;;;;;;;;90.25;61.75;;;;;4.51;99.55;100151.72;4946180;28;8867;-62
2020/12/23 05:21:20;;;;;;;;;101.00;65.00;;;;;4.60;98.92;100154.09;4937602;28;8875;-62
2020/12/23 05:23:48;;;;;;;;;89.25;66.25;;;;;4.63;99.37;100150.47;4937739;28;8898;-62
2020/12/23 05:26:16;;;;;;;;;96.00;68.00;;;;;4.71;99.48;100150.25;4954586;28;8844;-62
2020/12/23 05:28:45;;;;;;;;;95.25;70.50;;;;;4.66;99.93;100139.78;4954104;28;8898;-62
2020/12/23 05:31:15;;;;;;;;;99.00;68.50;;;;;4.70;99.76;100148.53;4954082;28;8883;-62
2020/12/23 05:33:45;;;;;;;;;94.50;66.25;;;;;4.74;99.93;100145.75;4954176;28;8866;-62
2020/12/23 05:36:15;;;;;;;;;98.25;71.25;;;;;4.92;99.61;100143.41;4963672;28;8834;-62
2020/12/23 05:38:43;;;;;;;;;87.25;62.50;;;;;4.72;99.84;100138.72;4971896;28;8837;-62
2020/12/23 05:41:14;;;;;;;;;93.75;63.00;;;;;4.68;100.00;100150.34;4956128;28;9447;-62
2020/12/23 05:43:44;;;;;;;;;99.75;69.25;;;;;5.23;99.70;100153.97;4973686;28;8838;-62
2020/12/23 05:46:12;;;;;;;;;93.25;63.25;;;;;4.73;99.07;100167.91;4963314;28;8860;-62
2020/12/23 05:48:41;;;;;;;;;89.50;62.75;;;;;4.78;98.77;100166.00;4954218;28;8844;-62
2020/12/23 05:51:10;;;;;;;;;87.75;64.25;;;;;4.80;100.00;100171.28;4937278;28;8870;-62
2020/12/23 05:53:39;;;;;;;;;94.00;65.00;;;;;4.88;98.36;100169.25;4954146;28;8832;-62
2020/12/23 05:56:09;;;;;;;;;94.00;67.50;;;;;4.88;98.97;100177.25;4940007;28;8848;-62
2020/12/23 05:58:38;;;;;;;;;90.00;64.00;;;;;4.89;98.67;100168.31;4973085;28;8873;-62
2020/12/23 06:01:08;;;;;;;;;98.50;66.75;;;;;4.76;99.61;100164.28;4954494;28;8858;-62
2020/12/23 06:03:55;;;;;;;;;97.75;65.00;;;;;4.81;99.41;100167.69;4973597;28;8853;-62
2020/12/23 06:06:27;;;;;;;;;88.25;65.25;;;;;4.90;98.53;100182.50;4955142;28;8862;-62
2020/12/23 06:09:04;;;;;;;;;90.75;64.00;;;;;4.93;99.52;100174.44;4954071;28;8867;-62
2020/12/23 06:11:44;;;;;;;;;90.00;65.50;;;;;4.92;98.23;100168.22;4953800;28;8955;-62
2020/12/23 06:14:15;;;;;;;;;81.50;60.75;;;;;4.95;98.23;100169.91;4969525;28;8950;-62
2020/12/23 06:16:43;;;;;;;;;97.25;64.25;;;;;4.97;98.38;100173.41;4972683;28;8854;-62
2020/12/23 06:19:39;;;;;;;;;87.00;64.25;;;;;4.93;98.75;100177.97;4972848;28;9931;-62
2020/12/23 06:22:09;;;;;;;;;88.50;63.25;;;;;4.86;99.41;100181.72;4972546;28;8895;-62
2020/12/23 06:24:38;;;;;;;;;90.25;64.25;;;;;4.86;99.33;100181.72;4972895;28;8886;-62
2020/12/23 06:27:07;;;;;;;;;89.50;64.50;;;;;4.88;98.89;100173.72;4958379;28;8854;-62
2020/12/23 06:29:39;;;;;;;;;92.50;64.75;;;;;5.07;98.79;100202.34;4953573;28;8989;-62
2020/12/23 06:32:07;;;;;;;;;97.25;66.00;;;;;4.96;98.51;100187.66;4953555;28;8866;-62
2020/12/23 06:34:40;;;;;;;;;94.50;64.50;;;;;4.93;98.70;100183.28;4953525;28;8904;-63
2020/12/23 06:37:37;;;;;;;;;89.75;66.50;;;;;4.94;98.86;100177.03;4953673;28;8888;-62
2020/12/23 06:40:11;;;;;;;;;97.00;67.75;;;;;5.03;99.02;100168.78;4971886;28;8974;-62
2020/12/23 06:42:47;;;;;;;;;95.75;69.50;;;;;5.02;98.65;100169.69;4972710;28;8890;-62
2020/12/23 06:45:15;;;;;;;;;95.75;65.50;;;;;5.20;98.88;100192.19;4963612;28;8967;-62
2020/12/23 06:47:42;;;;;;;;;92.50;65.25;;;;;5.05;98.62;100177.59;4953711;29;8972;-62
2020/12/23 06:50:30;;;;;;;;;91.25;66.00;;;;;5.06;99.35;100187.31;4954765;28;8854;-63
2020/12/23 06:52:57;;;;;;;;;90.25;66.50;;;;;5.19;99.03;100194.94;4972458;28;8867;-62
2020/12/23 06:55:59;;;;;;;;;86.75;63.00;;;;;5.41;99.01;100195.09;4962678;28;8908;-63
2020/12/23 06:58:44;;;;;;;;;100.00;71.50;;;;;5.59;99.20;100189.19;4860236;29;8882;-62
2020/12/23 07:01:19;;;;;;;;;104.25;78.50;;;;;5.73;99.62;100186.06;4950138;28;8952;-62
2020/12/23 07:03:48;;;;;;;;;103.00;75.75;;;;;5.34;98.18;100182.91;4956570;28;8908;-63
2020/12/23 07:06:33;;;;;;;;;96.50;72.50;;;;;5.34;99.19;100183.78;4955747;28;8950;-63
2020/12/23 07:09:05;;;;;;;;;96.50;70.25;;;;;5.30;98.25;100178.63;4955937;28;8888;-63
2020/12/23 07:11:37;;;;;;;;;100.50;70.00;;;;;5.34;99.40;100183.78;4963542;28;8881;-63
2020/12/23 07:14:05;;;;;;;;;112.00;88.25;;;;;5.47;99.39;100185.13;4965844;28;8862;-63
2020/12/23 07:16:40;;;;;;;;;106.75;80.50;;;;;5.45;99.03;100186.97;4952191;28;8865;-62
2020/12/23 07:19:08;;;;;;;;;104.00;71.25;;;;;5.44;98.95;100195.88;4956953;28;8868;-62
2020/12/23 07:21:35;;;;;;;;;107.75;76.00;;;;;5.50;99.39;100190.38;4940049;28;8950;-62
2020/12/23 07:24:03;;;;;;;;;109.00;78.67;;;;;5.50;98.45;100185.03;4940159;28;8864;-62
2020/12/23 07:26:29;;;;;;;;;116.75;90.50;;;;;5.66;99.09;100177.41;4939945;28;8836;-62
2020/12/23 07:28:57;;;;;;;;;116.75;92.00;;;;;5.67;98.44;100172.94;4939853;28;9569;-62
2020/12/23 07:31:25;;;;;;;;;108.00;86.00;;;;;5.65;98.37;100161.47;4940091;28;8871;-62
2020/12/23 07:33:52;;;;;;;;;108.50;84.50;;;;;5.70;99.02;100164.84;4955124;28;8860;-62
2020/12/23 07:36:19;;;;;;;;;103.50;76.25;;;;;5.95;97.73;100175.59;4956555;28;8871;-62
2020/12/23 07:38:52;;;;;;;;;114.50;88.75;;;;;5.89;98.40;100168.59;4956533;28;8852;-62
2020/12/23 07:41:19;;;;;;;;;105.75;72.25;;;;;5.94;98.64;100172.03;4968053;28;8967;-62
2020/12/23 07:43:46;;;;;;;;;103.75;78.25;;;;;5.98;98.50;100163.91;4956352;28;8872;-62
2020/12/23 07:46:14;;;;;;;;;101.00;72.00;;;;;6.15;97.77;100159.72;4955317;28;8903;-63
2020/12/23 07:48:40;;;;;;;;;93.25;65.25;;;;;6.28;97.86;100165.50;4956305;28;8872;-63
2020/12/23 07:51:08;;;;;;;;;93.25;65.50;;;;;6.34;98.16;100157.25;4955919;28;8828;-63
2020/12/23 07:53:35;;;;;;;;;88.75;61.25;;;;;6.43;97.09;100161.41;4957000;28;8840;-63
2020/12/23 07:56:05;;;;;;;;;83.00;64.00;;;;;6.51;97.99;100153.13;4964874;28;8860;-62
2020/12/23 07:58:35;;;;;;;;;88.25;63.75;;;;;6.52;97.67;100154.84;4965284;28;8848;-62
2020/12/23 08:01:02;;;;;;;;;88.00;63.00;;;;;6.60;97.79;100152.75;4955678;28;8948;-63
2020/12/23 08:03:32;;;;;;;;;85.00;59.50;;;;;6.72;96.93;100154.97;4939380;28;8860;-63
2020/12/23 08:06:26;;;;;;;;;81.75;61.00;;;;;6.89;97.07;100158.78;4960479;28;8865;-62
2020/12/23 08:08:53;;;;;;;;;83.50;61.25;;;;;7.02;96.66;100170.72;4972141;28;8853;-63
2020/12/23 08:11:20;;;;;;;;;84.75;59.50;;;;;7.02;96.01;100165.38;4973481;28;8884;-63
2020/12/23 08:13:47;;;;;;;;;83.75;59.25;;;;;6.98;95.58;100156.63;4958328;28;8850;-63
2020/12/23 08:16:16;;;;;;;;;75.25;57.25;;;;;7.01;95.28;100152.97;4974747;28;8869;-63
2020/12/23 08:18:47;;;;;;;;;79.75;58.25;;;;;7.06;95.59;100161.69;4974980;28;9624;-63
2020/12/23 08:21:17;;;;;;;;;84.25;58.00;;;;;6.98;95.14;100159.31;4941049;28;8873;-63
2020/12/23 08:23:46;;;;;;;;;84.25;62.00;;;;;6.97;95.80;100162.03;4955932;28;8878;-63
2020/12/23 08:26:14;;;;;;;;;83.25;61.50;;;;;6.92;95.61;100146.19;4962252;28;8863;-63
2020/12/23 08:28:47;;;;;;;;;87.75;62.25;;;;;7.17;96.70;100146.09;4955946;28;8968;-63
2020/12/23 08:31:27;;;;;;;;;85.25;61.75;;;;;7.10;96.12;100146.41;4955344;28;9590;-63
2020/12/23 08:34:03;;;;;;;;;81.25;60.50;;;;;7.11;95.57;100149.03;4954783;28;8854;-63
2020/12/23 08:36:31;;;;;;;;;83.75;61.25;;;;;7.13;95.89;100149.81;4955147;28;8869;-63
2020/12/23 08:38:58;;;;;;;;;80.25;58.25;;;;;7.00;95.64;100145.88;4938607;28;8968;-63
2020/12/23 08:41:26;;;;;;;;;86.75;63.00;;;;;7.08;95.68;100151.78;4938962;28;8952;-63
2020/12/23 08:43:53;;;;;;;;;79.75;59.00;;;;;7.12;96.15;100142.75;4973699;28;8844;-62
2020/12/23 08:46:26;;;;;;;;;77.50;61.25;;;;;7.14;95.90;100146.22;4972783;28;8889;-62
2020/12/23 08:48:54;;;;;;;;;91.50;63.75;;;;;7.20;95.69;100195.84;4974426;28;8868;-62
2020/12/23 08:51:25;;;;;;;;;86.25;59.25;;;;;7.14;95.93;100174.72;4974474;28;8885;-62
2020/12/23 08:53:52;;;;;;;;;83.50;60.50;;;;;7.13;95.93;100176.50;4973624;28;8843;-62
2020/12/23 08:56:29;;;;;;;;;87.00;61.25;;;;;7.19;96.31;100162.94;4968796;28;8878;-62
2020/12/23 08:59:02;;;;;;;;;85.00;61.50;;;;;7.35;95.96;100154.31;4973947;28;8855;-63
2020/12/23 09:01:32;;;;;;;;;79.00;59.50;;;;;7.35;95.81;100152.50;4974716;28;8847;-62
2020/12/23 09:03:59;;;;;;;;;79.00;56.33;;;;;7.45;95.14;100152.97;4955849;28;8906;-61
2020/12/23 09:06:27;;;;;;;;;77.33;57.00;;;;;7.44;94.81;100151.25;4955252;28;8864;-62
2020/12/23 09:09:17;;;;;;;;;76.00;55.67;;;;;7.42;94.14;100145.94;4954560;28;9927;-62
2020/12/23 09:11:48;;;;;;;;;68.33;50.33;;;;;7.37;93.94;100139.94;4954613;28;8901;-62
2020/12/23 09:14:34;;;;;;;;;74.33;54.67;;;;;7.34;94.15;100131.19;4955008;28;9028;-62
2020/12/23 09:17:29;;;;;;;;;73.67;52.00;;;;;7.41;94.37;100119.31;4954707;28;8897;-62
2020/12/23 09:20:04;;;;;;;;;74.00;55.67;;;;;7.29;93.92;100120.66;4954289;28;8902;-62
2020/12/23 09:22:38;;;;;;;;;74.33;54.67;;;;;7.40;93.74;100117.59;4938704;28;8970;-62
2020/12/23 09:25:26;;;;;;;;;71.25;55.00;;;;;7.40;93.64;100109.56;4965806;28;9013;-62
2020/12/23 09:28:05;;;;;;;;;75.67;59.00;;;;;7.46;93.77;100112.84;4973325;28;8850;-63
2020/12/23 09:30:52;;;;;;;;;75.33;55.33;;;;;7.58;93.45;100106.13;4972030;28;8959;-62
2020/12/23 09:33:24;;;;;;;;;76.33;58.67;;;;;7.60;93.64;100103.38;4954456;28;8832;-62
2020/12/23 09:36:03;;;;;;;;;71.33;54.00;;;;;7.66;93.32;100098.66;4954673;28;8852;-63
2020/12/23 09:38:34;;;;;;;;;81.00;58.00;;;;;7.71;93.05;100085.06;4953286;28;8846;-63
2020/12/23 09:41:06;;;;;;;;;74.33;54.33;;;;;7.68;92.86;100086.06;4953117;28;8841;-62
2020/12/23 09:43:36;;;;;;;;;76.00;56.67;;;;;7.75;92.36;100091.16;4952824;28;8844;-62
2020/12/23 09:46:08;;;;;;;;;76.33;53.33;;;;;7.80;92.55;100092.69;4952960;28;8875;-62
2020/12/23 09:48:35;;;;;;;;;67.67;50.00;;;;;8.03;91.82;100096.16;4952787;28;8946;-62
2020/12/23 09:51:03;;;;;;;;;74.00;55.00;;;;;7.99;90.69;100094.56;4952289;28;8866;-62
2020/12/23 09:53:33;;;;;;;;;81.67;55.00;;;;;7.95;91.17;100076.91;4953151;28;9527;-62
2020/12/23 09:56:00;;;;;;;;;67.00;51.33;;;;;8.11;91.37;100069.94;4953063;28;8863;-62
2020/12/23 09:58:29;;;;;;;;;71.00;52.33;;;;;8.18;91.45;100081.22;4952405;28;8837;-62
2020/12/23 10:00:56;;;;;;;;;67.67;51.33;;;;;8.07;90.73;100071.88;4952530;28;8842;-63
2020/12/23 10:03:22;;;;;;;;;67.67;49.67;;;;;8.13;90.57;100054.69;4952616;28;8932;-62
2020/12/23 10:05:49;;;;;;;;;69.33;49.00;;;;;8.11;91.26;100045.88;4952315;28;8878;-61
2020/12/23 10:08:16;;;;;;;;;72.00;53.67;;;;;8.33;91.07;100057.31;4952148;28;8852;-62
2020/12/23 10:10:43;;;;;;;;;66.00;48.33;;;;;8.30;90.06;100051.25;4952199;28;8852;-62
2020/12/23 10:13:10;;;;;;;;;73.00;52.67;;;;;8.43;90.71;100052.44;4952329;28;8848;-62
2020/12/23 10:15:37;;;;;;;;;73.67;50.00;;;;;8.47;90.43;100048.66;4952343;28;8844;-62
2020/12/23 10:18:04;;;;;;;;;68.33;49.00;;;;;8.62;89.01;100039.06;4952440;28;9607;-62
2020/12/23 10:20:31;;;;;;;;;71.33;50.33;;;;;8.92;88.92;100028.66;4952754;28;8876;-63
2020/12/23 10:22:57;;;;;;;;;67.33;52.00;;;;;9.06;88.31;100032.47;4953467;28;8879;-62
2020/12/23 10:25:24;;;;;;;;;64.00;51.67;;;;;9.09;87.25;100030.50;4953227;28;8883;-62
2020/12/23 10:27:51;;;;;;;;;72.67;51.00;;;;;9.16;87.74;100017.66;4953755;28;8868;-62
2020/12/23 10:30:18;;;;;;;;;63.00;52.33;;;;;9.05;87.22;100010.16;4953619;28;8913;-62
2020/12/23 10:32:45;;;;;;;;;63.00;50.00;;;;;8.98;87.21;100006.09;4952507;28;8912;-62
2020/12/23 10:35:11;;;;;;;;;64.00;45.33;;;;;9.01;88.64;100001.44;4953306;28;8866;-63
2020/12/23 10:37:42;;;;;;;;;64.00;46.00;;;;;8.99;87.48;100003.31;4953030;28;8945;-62
2020/12/23 10:40:09;;;;;;;;;47.67;38.33;;;;;9.22;87.86;100003.97;4953184;28;8855;-62
2020/12/23 10:42:36;;;;;;;;;63.00;50.67;;;;;9.35;85.73;100004.22;4952604;28;9634;-62
2020/12/23 10:45:06;;;;;;;;;63.00;51.00;;;;;9.70;87.14;100005.06;4959551;28;8847;-62
2020/12/23 10:47:34;;;;;;;;;59.33;45.00;;;;;9.69;85.76;100003.31;4972783;28;8855;-62
2020/12/23 10:50:01;;;;;;;;;58.33;48.67;;;;;9.55;85.73;100003.16;4958342;28;8921;-62
2020/12/23 10:52:28;;;;;;;;;57.33;46.00;;;;;9.75;85.46;100013.72;4953083;29;8862;-62
2020/12/23 10:54:56;;;;;;;;;66.33;51.00;;;;;9.76;84.58;100015.44;4952776;28;8890;-62
2020/12/23 10:57:23;;;;;;;;;65.00;48.00;;;;;9.80;84.54;100010.81;4952608;28;8893;-62
2020/12/23 10:59:51;;;;;;;;;62.33;49.00;;;;;9.87;84.18;99998.78;4952905;29;8846;-62
2020/12/23 11:02:18;;;;;;;;;63.33;49.67;;;;;10.06;83.40;99996.00;4952163;28;8874;-62
2020/12/23 11:04:46;;;;;;;;;61.67;48.33;;;;;9.86;84.34;99989.88;4952822;28;8856;-62
2020/12/23 11:07:13;;;;;;;;;63.67;48.33;;;;;9.97;83.84;99985.75;4936308;29;8958;-62
2020/12/23 11:09:41;;;;;;;;;63.00;47.67;;;;;9.87;84.31;99980.91;4936201;29;8855;-62
2020/12/23 11:15:56;;;;;;;;;67.67;50.33;;;;;10.24;84.10;99968.16;4956118;28;9583;-62
2020/12/23 11:18:23;;;;;;;;;63.00;47.67;;;;;10.04;85.04;99955.81;4951668;29;8862;-62
2020/12/23 11:20:49;;;;;;;;;61.00;45.00;;;;;10.28;82.38;99959.00;4953951;28;8858;-62
2020/12/23 11:23:25;;;;;;;;;57.33;45.33;;;;;10.48;82.66;99957.03;4970564;28;8857;-62
2020/12/23 11:25:52;;;;;;;;;54.33;45.33;;;;;10.11;82.28;99948.31;4946830;29;8860;-62
2020/12/23 11:28:19;;;;;;;;;58.00;46.67;;;;;10.16;83.25;99948.91;4962332;28;8849;-62
2020/12/23 11:31:33;;;;;;;;;62.67;49.33;;;;;10.25;83.57;99945.72;4948759;29;8859;-62
2020/12/23 11:34:01;;;;;;;;;61.67;50.00;;;;;10.25;82.83;99943.03;4963249;28;8866;-62
2020/12/23 11:36:28;;;;;;;;;56.00;44.33;;;;;10.54;82.58;99935.19;4964268;28;8852;-62
2020/12/23 11:39:16;;;;;;;;;54.33;43.00;;;;;10.58;82.65;99928.66;4955810;28;8850;-62